Time;durP1;ratioP1;P1;durP2;ratioP2;P2;SDS_P1;SDS_P2;PMS_P1;PMS_P2;Temp;Humidity;BMP_temperature;BMP_pressure;BME280_temperature;BME280_humidity;BME280_pressure;Samples;Min_cycle;Max_cycle;Signal;HPM_P1;HPM_P2
2023/06/15 00:00:47;;;;;;;5.82;2.20;;;13.30;99.90;;;;;;6109314;23;20006;-66
2023/06/15 00:03:13;;;;;;;2.22;1.95;;;13.20;99.90;;;;;;6110430;23;20067;-66
2023/06/15 00:05:38;;;;;;;2.40;1.92;;;13.20;99.90;;;;;;6111801;23;20108;-66
2023/06/15 00:08:04;;;;;;;2.70;1.80;;;13.20;99.90;;;;;;6109240;23;20009;-66
2023/06/15 00:10:30;;;;;;;3.53;2.08;;;13.20;99.90;;;;;;6108090;23;20002;-66
2023/06/15 00:12:56;;;;;;;2.80;2.00;;;13.20;99.90;;;;;;6105301;23;20025;-66
2023/06/15 00:15:21;;;;;;;2.13;1.70;;;13.20;99.90;;;;;;6109700;23;20013;-66
2023/06/15 00:17:48;;;;;;;2.42;2.13;;;13.10;99.90;;;;;;6108668;23;20006;-66
2023/06/15 00:20:14;;;;;;;4.00;2.80;;;13.10;99.90;;;;;;6108393;23;20408;-66
2023/06/15 00:22:41;;;;;;;3.63;1.88;;;13.10;99.90;;;;;;6110182;23;20185;-66
2023/06/15 00:25:10;;;;;;;1.88;1.77;;;13.20;99.90;;;;;;6109764;23;20082;-66
2023/06/15 00:27:36;;;;;;;3.55;2.50;;;13.10;99.90;;;;;;6108567;23;20026;-66
2023/06/15 00:30:03;;;;;;;2.33;2.00;;;13.00;99.90;;;;;;6107028;23;20092;-66
2023/06/15 00:32:29;;;;;;;2.97;2.00;;;13.00;99.90;;;;;;6109731;23;20064;-72
2023/06/15 00:34:55;;;;;;;2.20;1.88;;;12.90;99.90;;;;;;6108187;23;20428;-67
2023/06/15 00:37:21;;;;;;;2.03;1.90;;;12.90;99.90;;;;;;6112431;23;20627;-67
2023/06/15 00:39:46;;;;;;;2.20;2.00;;;12.80;99.90;;;;;;6108740;23;20050;-66
2023/06/15 00:42:12;;;;;;;2.20;1.90;;;12.70;99.90;;;;;;6109822;23;20434;-66
2023/06/15 00:44:38;;;;;;;2.72;1.88;;;12.70;99.90;;;;;;6109691;23;20010;-66
2023/06/15 00:47:04;;;;;;;4.05;2.10;;;12.70;99.90;;;;;;6106839;23;20030;-66
2023/06/15 00:49:32;;;;;;;5.35;2.03;;;12.70;99.90;;;;;;6108459;23;20006;-65
2023/06/15 00:51:58;;;;;;;3.30;2.17;;;12.60;99.90;;;;;;6111134;23;20057;-66
2023/06/15 00:54:24;;;;;;;2.85;2.40;;;12.60;99.90;;;;;;6108526;23;20010;-67
2023/06/15 00:56:51;;;;;;;2.70;1.90;;;12.60;99.90;;;;;;6108159;23;20005;-66
2023/06/15 00:59:18;;;;;;;2.22;1.80;;;12.60;99.90;;;;;;6108863;23;20014;-66
2023/06/15 01:01:44;;;;;;;2.78;2.03;;;12.60;99.90;;;;;;6107602;23;20034;-66
2023/06/15 01:04:10;;;;;;;4.45;1.63;;;12.70;99.90;;;;;;6108332;23;20006;-67
2023/06/15 01:06:41;;;;;;;1.98;1.80;;;12.70;99.90;;;;;;6110492;23;20061;-66
2023/06/15 01:09:09;;;;;;;3.50;2.00;;;12.80;99.90;;;;;;6112303;23;20073;-67
2023/06/15 01:11:35;;;;;;;3.15;2.38;;;12.70;99.90;;;;;;6110454;23;19998;-66
2023/06/15 01:14:03;;;;;;;2.17;1.98;;;12.70;99.90;;;;;;6112711;23;20010;-66
2023/06/15 01:16:39;;;;;;;4.13;2.30;;;12.60;99.90;;;;;;6108705;23;20001;-66
2023/06/15 01:19:09;;;;;;;4.90;2.60;;;12.60;99.90;;;;;;6105051;23;20076;-66
2023/06/15 01:21:35;;;;;;;1.88;1.75;;;12.70;99.90;;;;;;6112077;23;20002;-66
2023/06/15 01:24:19;;;;;;;2.38;1.73;;;12.70;99.90;;;;;;6112207;23;20013;-66
2023/06/15 01:26:50;;;;;;;2.35;2.15;;;12.50;99.90;;;;;;6112084;23;20064;-66
2023/06/15 01:29:19;;;;;;;2.80;2.10;;;12.40;99.90;;;;;;6111803;23;20006;-66
2023/06/15 01:31:46;;;;;;;2.47;2.25;;;12.40;99.90;;;;;;6108456;23;20108;-66
2023/06/15 01:34:12;;;;;;;5.38;2.05;;;12.40;99.90;;;;;;6114026;23;20006;-66
2023/06/15 01:36:37;;;;;;;3.53;2.35;;;12.40;99.90;;;;;;6112844;23;20021;-66
2023/06/15 01:39:05;;;;;;;5.25;2.13;;;12.50;99.90;;;;;;6110983;23;20018;-67
2023/06/15 01:41:33;;;;;;;2.75;2.03;;;12.50;99.90;;;;;;6114109;23;20010;-66
2023/06/15 01:43:59;;;;;;;2.67;2.28;;;12.50;99.90;;;;;;6111521;23;20002;-66
2023/06/15 01:46:26;;;;;;;3.10;1.80;;;12.50;99.90;;;;;;6110979;23;20021;-66
2023/06/15 01:48:53;;;;;;;4.43;2.08;;;12.50;99.90;;;;;;6107813;23;20317;-66
2023/06/15 01:51:20;;;;;;;4.53;1.90;;;12.40;99.90;;;;;;6108864;23;20427;-67
2023/06/15 01:53:46;;;;;;;2.90;2.00;;;12.30;99.90;;;;;;6111268;23;20132;-66
2023/06/15 01:56:13;;;;;;;3.20;2.38;;;12.20;99.90;;;;;;6112656;23;20711;-66
2023/06/15 01:58:39;;;;;;;5.35;2.05;;;12.20;99.90;;;;;;6110143;23;20005;-66
2023/06/15 02:01:05;;;;;;;2.47;1.80;;;12.20;99.90;;;;;;6112385;23;20016;-66
2023/06/15 02:03:31;;;;;;;5.05;2.15;;;12.20;99.90;;;;;;6109782;23;20009;-67
2023/06/15 02:05:57;;;;;;;2.10;1.90;;;12.20;99.90;;;;;;6109703;23;20096;-66
2023/06/15 02:08:22;;;;;;;3.75;2.17;;;12.20;99.90;;;;;;6112675;23;20081;-66
2023/06/15 02:10:48;;;;;;;4.00;2.30;;;12.20;99.90;;;;;;6113070;23;20033;-66
2023/06/15 02:13:14;;;;;;;2.92;2.03;;;12.20;99.90;;;;;;6110658;23;20018;-66
2023/06/15 02:15:40;;;;;;;3.05;2.22;;;12.10;99.90;;;;;;6112598;23;20006;-66
2023/06/15 02:18:11;;;;;;;2.47;2.28;;;12.10;99.90;;;;;;6110340;23;20006;-66
2023/06/15 02:20:42;;;;;;;3.20;2.28;;;12.10;99.90;;;;;;6113844;23;20037;-66
2023/06/15 02:23:08;;;;;;;2.35;2.15;;;12.00;99.90;;;;;;6109520;23;20006;-66
2023/06/15 02:25:33;;;;;;;4.47;2.53;;;12.00;99.90;;;;;;6111817;23;20006;-66
2023/06/15 02:27:59;;;;;;;3.65;1.70;;;12.00;99.90;;;;;;6113171;23;20006;-66
2023/06/15 02:30:26;;;;;;;1.20;1.10;;;12.00;99.90;;;;;;6112908;23;20005;-66
2023/06/15 02:32:53;;;;;;;1.67;1.58;;;12.00;99.90;;;;;;6110544;23;20010;-66
2023/06/15 02:35:19;;;;;;;1.80;1.42;;;11.90;99.90;;;;;;6111290;23;20367;-66
2023/06/15 02:37:46;;;;;;;2.80;2.03;;;11.90;99.90;;;;;;6114022;23;20014;-67
2023/06/15 02:40:11;;;;;;;4.38;1.70;;;11.90;99.90;;;;;;6109943;23;20014;-66
2023/06/15 02:42:38;;;;;;;2.15;1.95;;;11.90;99.90;;;;;;6114270;23;20012;-66
2023/06/15 02:45:06;;;;;;;2.08;1.90;;;11.90;99.90;;;;;;6107750;23;20014;-66
2023/06/15 02:47:35;;;;;;;2.95;1.90;;;11.90;99.90;;;;;;6111368;23;20022;-67
2023/06/15 02:50:02;;;;;;;2.70;2.00;;;11.90;99.90;;;;;;6110163;23;20088;-66
2023/06/15 02:52:30;;;;;;;3.47;1.65;;;11.80;99.90;;;;;;6114006;23;20001;-66
2023/06/15 02:54:59;;;;;;;2.28;1.77;;;11.80;99.90;;;;;;6110377;23;20006;-66
2023/06/15 02:57:25;;;;;;;2.20;2.00;;;11.80;99.90;;;;;;6112541;23;19999;-66
2023/06/15 02:59:51;;;;;;;2.35;2.00;;;11.80;99.90;;;;;;6112555;23;20017;-66
2023/06/15 03:02:20;;;;;;;2.00;1.90;;;11.80;99.90;;;;;;6111048;23;20254;-66
2023/06/15 03:04:47;;;;;;;4.78;2.20;;;11.90;99.90;;;;;;6111967;23;20006;-66
2023/06/15 03:07:16;;;;;;;5.28;2.05;;;11.80;99.90;;;;;;6111611;23;20145;-66
2023/06/15 03:09:45;;;;;;;2.38;1.90;;;11.80;99.90;;;;;;6112673;23;20005;-66
2023/06/15 03:12:10;;;;;;;2.70;2.20;;;11.80;99.90;;;;;;6111204;23;20340;-66
2023/06/15 03:14:37;;;;;;;4.53;2.20;;;11.80;99.90;;;;;;6112955;23;20120;-66
2023/06/15 03:17:04;;;;;;;2.78;2.05;;;11.80;99.90;;;;;;6110289;23;20010;-66
2023/06/15 03:19:30;;;;;;;3.05;2.40;;;11.80;99.90;;;;;;6110654;23;20013;-66
2023/06/15 03:21:57;;;;;;;3.90;2.30;;;11.70;99.90;;;;;;6110737;23;20061;-66
2023/06/15 03:24:25;;;;;;;2.92;1.85;;;11.80;99.90;;;;;;6111282;23;20005;-66
2023/06/15 03:26:51;;;;;;;3.10;1.92;;;11.80;99.90;;;;;;6112111;23;20598;-66
2023/06/15 03:29:17;;;;;;;3.22;2.08;;;11.80;99.90;;;;;;6112021;23;20006;-66
2023/06/15 03:31:44;;;;;;;4.28;2.20;;;11.90;99.90;;;;;;6111173;23;20002;-66
2023/06/15 03:34:10;;;;;;;2.97;2.30;;;12.00;99.90;;;;;;6111243;23;20363;-66
2023/06/15 03:36:36;;;;;;;2.30;2.10;;;12.00;99.90;;;;;;6112496;23;20416;-66
2023/06/15 03:39:06;;;;;;;2.83;2.30;;;12.10;99.90;;;;;;6112519;23;20072;-66
2023/06/15 03:41:33;;;;;;;2.90;2.00;;;12.20;99.90;;;;;;6111819;23;20006;-67
2023/06/15 03:43:59;;;;;;;2.67;1.92;;;12.20;99.90;;;;;;6112915;23;20009;-66
2023/06/15 03:46:24;;;;;;;7.43;2.15;;;12.20;99.90;;;;;;6109170;23;20017;-66
2023/06/15 03:48:50;;;;;;;2.75;2.20;;;12.20;99.90;;;;;;6110800;23;20006;-66
2023/06/15 03:51:16;;;;;;;4.20;2.30;;;12.30;99.90;;;;;;6106568;23;20623;-66
2023/06/15 03:53:42;;;;;;;4.10;2.08;;;12.30;99.90;;;;;;6111603;23;20095;-66
2023/06/15 03:56:08;;;;;;;3.70;1.83;;;12.30;99.90;;;;;;6108973;23;20006;-66
2023/06/15 03:58:33;;;;;;;3.08;2.00;;;12.40;99.90;;;;;;6111540;23;20671;-66
2023/06/15 04:01:00;;;;;;;5.05;2.05;;;12.50;99.90;;;;;;6107260;23;20367;-66
2023/06/15 04:03:26;;;;;;;2.88;2.55;;;12.50;99.90;;;;;;6109907;23;20299;-73
2023/06/15 04:05:52;;;;;;;4.28;2.30;;;12.60;99.90;;;;;;6106777;23;20871;-75
2023/06/15 04:08:19;;;;;;;6.72;2.05;;;12.60;99.90;;;;;;6109973;23;20029;-67
2023/06/15 04:10:44;;;;;;;2.80;2.50;;;12.70;99.90;;;;;;6111495;23;20010;-66
2023/06/15 04:13:10;;;;;;;5.03;2.40;;;12.80;99.90;;;;;;6110696;23;20030;-67
2023/06/15 04:15:35;;;;;;;3.60;2.75;;;12.90;99.90;;;;;;6112061;23;20014;-66
2023/06/15 04:18:01;;;;;;;2.55;2.35;;;13.00;99.90;;;;;;6110640;23;20081;-66
2023/06/15 04:20:31;;;;;;;3.00;2.70;;;13.10;99.90;;;;;;6111262;23;20376;-67
2023/06/15 04:22:57;;;;;;;5.82;3.78;;;13.20;99.90;;;;;;6111377;23;20009;-67
2023/06/15 04:25:23;;;;;;;19.77;11.65;;;13.40;99.90;;;;;;6110650;23;20006;-66
2023/06/15 04:27:49;;;;;;;12.13;7.63;;;13.50;99.90;;;;;;6111857;23;19998;-67
2023/06/15 04:30:16;;;;;;;9.05;5.78;;;13.60;99.90;;;;;;6106473;23;20045;-67
2023/06/15 04:32:43;;;;;;;8.20;5.40;;;13.60;99.90;;;;;;6108892;23;20772;-67
2023/06/15 04:35:09;;;;;;;6.93;5.22;;;13.80;99.90;;;;;;6109781;23;20006;-67
2023/06/15 04:37:39;;;;;;;5.95;4.78;;;13.90;99.90;;;;;;6112106;23;20428;-67
2023/06/15 04:40:07;;;;;;;6.85;5.05;;;14.00;99.90;;;;;;6107685;23;20025;-66
2023/06/15 04:42:33;;;;;;;5.43;4.80;;;14.10;99.90;;;;;;6112870;23;20030;-66
2023/06/15 04:44:59;;;;;;;7.07;4.50;;;14.20;99.90;;;;;;6112415;23;20387;-66
2023/06/15 04:47:25;;;;;;;6.65;3.78;;;14.30;99.90;;;;;;6111498;23;20192;-66
2023/06/15 04:49:51;;;;;;;4.72;3.50;;;14.40;99.90;;;;;;6109483;23;20042;-67
2023/06/15 04:52:17;;;;;;;4.45;3.25;;;14.60;99.90;;;;;;6111967;23;20096;-67
2023/06/15 04:54:42;;;;;;;3.67;2.85;;;14.70;99.90;;;;;;6113539;23;20021;-68
2023/06/15 04:57:08;;;;;;;6.18;3.50;;;14.80;99.90;;;;;;6111787;23;20010;-67
2023/06/15 04:59:34;;;;;;;5.40;3.45;;;15.00;99.90;;;;;;6111578;23;20101;-66
2023/06/15 05:02:00;;;;;;;7.57;3.45;;;15.00;99.90;;;;;;6108911;23;20028;-66
2023/06/15 05:04:26;;;;;;;6.00;3.70;;;15.10;99.90;;;;;;6106042;23;20420;-66
2023/06/15 05:06:51;;;;;;;4.55;3.08;;;15.10;99.90;;;;;;6109477;23;20002;-66
2023/06/15 05:09:19;;;;;;;5.03;2.90;;;15.20;99.90;;;;;;6110843;23;20542;-67
2023/06/15 05:11:45;;;;;;;5.95;3.22;;;15.30;99.90;;;;;;6105606;23;20006;-69
2023/06/15 05:14:10;;;;;;;14.60;3.00;;;15.40;99.90;;;;;;6104443;23;20579;-68
2023/06/15 05:16:36;;;;;;;3.33;2.72;;;15.60;99.90;;;;;;6111206;23;20014;-70
2023/06/15 05:19:01;;;;;;;3.03;2.80;;;15.70;99.90;;;;;;6109527;23;20332;-69
2023/06/15 05:21:27;;;;;;;3.08;2.78;;;15.80;99.90;;;;;;6112163;23;20012;-68
2023/06/15 05:23:53;;;;;;;6.03;2.80;;;16.00;99.90;;;;;;6106977;23;20362;-69
2023/06/15 05:26:19;;;;;;;9.88;3.22;;;16.00;99.90;;;;;;6111130;23;20025;-69
2023/06/15 05:28:45;;;;;;;5.07;2.58;;;16.10;99.90;;;;;;6106553;23;20040;-68
2023/06/15 05:31:11;;;;;;;10.35;3.33;;;16.30;99.90;;;;;;6103044;23;20553;-71
2023/06/15 05:33:36;;;;;;;4.90;2.70;;;16.40;99.90;;;;;;6105831;23;20009;-66
2023/06/15 05:36:02;;;;;;;2.70;2.40;;;16.40;99.90;;;;;;6102538;23;20005;-66
2023/06/15 05:38:28;;;;;;;6.50;2.80;;;16.50;99.90;;;;;;6106229;23;20080;-72
2023/06/15 05:40:54;;;;;;;6.07;3.35;;;16.60;99.90;;;;;;6110570;23;20033;-67
2023/06/15 05:43:19;;;;;;;4.28;2.60;;;16.70;99.90;;;;;;6112562;23;20065;-67
2023/06/15 05:45:47;;;;;;;2.40;2.20;;;16.80;99.90;;;;;;6109570;23;20041;-67
2023/06/15 05:48:13;;;;;;;3.63;2.40;;;16.80;99.90;;;;;;6110141;23;20001;-67
2023/06/15 05:50:40;;;;;;;4.70;2.42;;;16.90;99.90;;;;;;6110044;23;20014;-68
2023/06/15 05:53:05;;;;;;;2.60;2.03;;;17.00;99.90;;;;;;6113164;23;20014;-67
2023/06/15 05:55:31;;;;;;;2.47;2.17;;;17.00;99.90;;;;;;6114348;23;20009;-67
2023/06/15 05:57:57;;;;;;;3.10;2.78;;;17.00;99.90;;;;;;6112565;23;20348;-68
2023/06/15 06:00:25;;;;;;;2.38;2.17;;;17.10;99.90;;;;;;6113141;23;20014;-68
2023/06/15 06:02:52;;;;;;;4.78;2.70;;;17.20;99.90;;;;;;6110915;23;20448;-67
2023/06/15 06:05:18;;;;;;;3.42;2.10;;;17.20;99.90;;;;;;6111388;23;20013;-68
2023/06/15 06:07:46;;;;;;;7.38;2.10;;;17.40;99.90;;;;;;6115499;23;20002;-68
2023/06/15 06:10:12;;;;;;;2.30;2.10;;;17.50;99.90;;;;;;6114385;23;20009;-69
2023/06/15 06:12:39;;;;;;;2.97;1.95;;;17.60;99.90;;;;;;6115429;23;20365;-69
2023/06/15 06:15:05;;;;;;;3.42;1.98;;;17.70;99.90;;;;;;6114660;23;20030;-69
2023/06/15 06:17:31;;;;;;;2.65;2.20;;;17.80;99.90;;;;;;6113485;23;20059;-69
2023/06/15 06:19:56;;;;;;;2.08;1.85;;;17.90;99.90;;;;;;6115026;23;20092;-69
2023/06/15 06:22:22;;;;;;;2.17;1.98;;;18.00;99.90;;;;;;6112204;23;20002;-69
2023/06/15 06:24:48;;;;;;;6.20;2.38;;;18.00;99.90;;;;;;6115610;23;20006;-69
2023/06/15 06:27:14;;;;;;;2.13;1.80;;;18.00;99.90;;;;;;6115162;23;20010;-70
2023/06/15 06:29:42;;;;;;;3.33;2.20;;;18.10;99.90;;;;;;6114876;23;20006;-69
2023/06/15 06:32:08;;;;;;;5.57;2.58;;;18.20;99.90;;;;;;6111469;23;20012;-69
2023/06/15 06:34:35;;;;;;;2.53;2.22;;;18.20;99.90;;;;;;6113784;23;20010;-69
2023/06/15 06:37:03;;;;;;;3.63;1.95;;;18.20;99.90;;;;;;6113570;23;20034;-69
2023/06/15 06:39:29;;;;;;;6.60;2.25;;;18.30;99.90;;;;;;6114053;23;20343;-70
2023/06/15 06:41:54;;;;;;;2.45;2.00;;;18.50;99.90;;;;;;6112589;23;20006;-69
2023/06/15 06:44:21;;;;;;;2.13;1.88;;;18.60;99.90;;;;;;6113984;23;20010;-68
2023/06/15 06:46:46;;;;;;;5.03;1.85;;;18.70;99.90;;;;;;6113990;23;20086;-67
2023/06/15 06:49:12;;;;;;;3.13;1.95;;;18.80;99.90;;;;;;6114268;23;20006;-68
2023/06/15 06:51:38;;;;;;;5.10;2.30;;;18.90;99.90;;;;;;6113791;23;20040;-68
2023/06/15 06:54:03;;;;;;;3.33;1.88;;;19.00;99.90;;;;;;6113226;23;20001;-68
2023/06/15 06:56:29;;;;;;;3.33;2.28;;;19.10;99.90;;;;;;6114708;23;20073;-68
2023/06/15 06:58:55;;;;;;;3.35;2.17;;;19.20;99.90;;;;;;6115034;23;20037;-68
2023/06/15 07:01:20;;;;;;;2.05;1.90;;;19.20;99.90;;;;;;6113137;23;20109;-68
2023/06/15 07:03:46;;;;;;;2.53;2.25;;;19.20;99.90;;;;;;6111061;23;20061;-69
2023/06/15 07:06:12;;;;;;;3.35;2.10;;;19.20;99.90;;;;;;6112679;23;20006;-69
2023/06/15 07:08:37;;;;;;;14.32;3.83;;;19.30;99.90;;;;;;6113686;23;20016;-69
2023/06/15 07:11:03;;;;;;;10.88;2.80;;;19.30;99.90;;;;;;6111806;23;20040;-68
2023/06/15 07:13:29;;;;;;;2.40;2.20;;;19.50;99.90;;;;;;6112235;23;20029;-69
2023/06/15 07:15:56;;;;;;;2.03;1.80;;;19.50;99.90;;;;;;6111076;23;20268;-69
2023/06/15 07:18:22;;;;;;;3.03;2.33;;;19.40;99.90;;;;;;6108012;23;20467;-69
2023/06/15 07:20:53;;;;;;;3.30;2.20;;;19.40;99.90;;;;;;6108817;23;20014;-69
2023/06/15 07:23:22;;;;;;;2.25;2.08;;;19.50;99.90;;;;;;6114104;23;20215;-67
2023/06/15 07:25:49;;;;;;;5.78;2.10;;;19.70;99.90;;;;;;6110406;23;20017;-68
2023/06/15 07:28:15;;;;;;;7.03;3.20;;;19.70;99.90;;;;;;6109915;23;20842;-68
2023/06/15 07:30:41;;;;;;;6.00;2.35;;;19.70;99.90;;;;;;6113388;23;20013;-68
2023/06/15 07:33:07;;;;;;;6.32;2.22;;;19.60;99.90;;;;;;6110268;23;20002;-67
2023/06/15 07:35:32;;;;;;;3.38;2.20;;;19.50;99.90;;;;;;6110881;23;20017;-67
2023/06/15 07:37:58;;;;;;;4.45;2.60;;;19.70;99.90;;;;;;6113667;23;20010;-68
2023/06/15 07:40:23;;;;;;;5.00;2.63;;;19.90;99.90;;;;;;6113733;23;20072;-67
2023/06/15 07:42:49;;;;;;;2.40;2.13;;;20.00;99.90;;;;;;6112453;23;20363;-68
2023/06/15 07:45:15;;;;;;;2.10;1.95;;;20.10;99.90;;;;;;6113417;23;20001;-68
2023/06/15 07:47:43;;;;;;;2.17;1.85;;;20.20;99.90;;;;;;6112015;23;20061;-67
2023/06/15 07:50:09;;;;;;;9.35;2.83;;;20.40;99.90;;;;;;6110037;23;20002;-67
2023/06/15 07:52:35;;;;;;;3.85;2.10;;;20.60;99.90;;;;;;6112749;23;20060;-68
2023/06/15 07:55:00;;;;;;;8.63;2.53;;;20.80;99.90;;;;;;6112524;23;20337;-67
2023/06/15 07:57:26;;;;;;;3.20;2.25;;;20.90;99.90;;;;;;6112825;23;20766;-67
2023/06/15 07:59:52;;;;;;;2.70;2.20;;;21.00;99.90;;;;;;6111722;23;20403;-67
2023/06/15 08:02:18;;;;;;;5.57;2.00;;;21.00;99.90;;;;;;6110855;23;20097;-67
2023/06/15 08:04:43;;;;;;;2.58;2.38;;;21.10;99.90;;;;;;6113235;23;20332;-67
2023/06/15 08:07:09;;;;;;;3.78;2.10;;;21.20;99.90;;;;;;6109593;23;20010;-67
2023/06/15 08:09:35;;;;;;;2.38;2.17;;;21.20;99.90;;;;;;6110850;23;20093;-68
2023/06/15 08:12:01;;;;;;;3.72;2.40;;;21.10;99.90;;;;;;6110086;23;20049;-67
2023/06/15 08:14:27;;;;;;;2.65;2.30;;;21.10;99.90;;;;;;6109329;23;20010;-67
2023/06/15 08:16:53;;;;;;;2.90;2.22;;;21.10;99.90;;;;;;6110069;23;20006;-67
2023/06/15 08:19:18;;;;;;;3.15;2.05;;;21.10;99.90;;;;;;6112401;23;20742;-67
2023/06/15 08:21:44;;;;;;;3.47;2.45;;;21.30;99.90;;;;;;6111883;23;20006;-67
2023/06/15 08:24:10;;;;;;;3.45;2.42;;;21.30;99.90;;;;;;6111048;23;20110;-67
2023/06/15 08:26:35;;;;;;;3.17;2.28;;;21.30;99.90;;;;;;6114256;23;20037;-67
2023/06/15 08:29:01;;;;;;;2.28;2.08;;;21.30;99.90;;;;;;6110297;23;20006;-67
2023/06/15 08:31:28;;;;;;;4.85;2.22;;;21.30;99.90;;;;;;6109563;23;20002;-67
2023/06/15 08:33:54;;;;;;;3.60;2.08;;;21.40;99.90;;;;;;6110552;23;20014;-67
2023/06/15 08:36:19;;;;;;;4.80;2.30;;;21.50;99.90;;;;;;6112854;23;20037;-67
2023/06/15 08:38:45;;;;;;;2.70;2.30;;;21.60;99.90;;;;;;6111045;23;20113;-67
2023/06/15 08:41:11;;;;;;;2.80;2.50;;;21.60;99.90;;;;;;6112565;23;20002;-67
2023/06/15 08:43:38;;;;;;;3.15;2.40;;;21.60;99.90;;;;;;6111954;23;20009;-67
2023/06/15 08:46:04;;;;;;;3.13;2.22;;;21.70;99.90;;;;;;6110509;23;20018;-67
2023/06/15 08:48:32;;;;;;;4.00;2.13;;;21.80;99.90;;;;;;6111428;23;20002;-67
2023/06/15 08:50:58;;;;;;;3.70;2.40;;;21.90;99.90;;;;;;6106918;23;20013;-67
2023/06/15 08:53:27;;;;;;;3.63;2.30;;;22.00;99.90;;;;;;6110312;23;20009;-67
2023/06/15 08:55:52;;;;;;;3.33;2.40;;;22.00;99.90;;;;;;6110508;23;20284;-67
2023/06/15 08:58:18;;;;;;;2.75;2.40;;;22.10;99.90;;;;;;6111032;23;20061;-67
2023/06/15 09:00:44;;;;;;;2.22;2.03;;;22.30;99.90;;;;;;6111474;23;20022;-67
2023/06/15 09:03:11;;;;;;;2.95;2.08;;;22.40;99.90;;;;;;6110958;23;20423;-68
2023/06/15 09:05:36;;;;;;;2.53;2.33;;;22.50;99.90;;;;;;6107701;23;20006;-67
2023/06/15 09:08:03;;;;;;;2.50;2.30;;;22.60;99.90;;;;;;6113614;23;20009;-67
2023/06/15 09:10:29;;;;;;;7.93;2.50;;;22.60;99.90;;;;;;6112449;23;20045;-67
2023/06/15 09:12:57;;;;;;;2.60;2.40;;;22.70;99.90;;;;;;6110011;23;20010;-67
2023/06/15 09:15:24;;;;;;;3.20;1.98;;;22.80;99.90;;;;;;6111783;23;20069;-67
2023/06/15 09:17:54;;;;;;;3.42;2.72;;;22.90;99.90;;;;;;6112608;23;20485;-68
2023/06/15 09:20:22;;;;;;;2.25;2.05;;;22.90;99.90;;;;;;6112304;23;20021;-67
2023/06/15 09:22:48;;;;;;;2.58;1.92;;;23.00;99.90;;;;;;6111196;23;20097;-67
2023/06/15 09:25:20;;;;;;;2.40;2.00;;;22.90;99.90;;;;;;6112524;23;20010;-67
2023/06/15 09:27:57;;;;;;;3.30;2.47;;;22.70;99.90;;;;;;6110599;23;20068;-67
2023/06/15 09:30:43;;;;;;;2.53;2.33;;;22.50;99.90;;;;;;6113812;23;20090;-69
2023/06/15 09:33:16;;;;;;;2.53;2.33;;;22.30;99.90;;;;;;6113155;23;20387;-67
2023/06/15 09:35:59;;;;;;;4.93;2.65;;;22.20;99.90;;;;;;6112626;23;20010;-67
2023/06/15 09:38:26;;;;;;;7.15;2.83;;;22.10;99.90;;;;;;6114449;23;20014;-67
2023/06/15 09:40:53;;;;;;;5.68;4.20;;;22.00;99.90;;;;;;6114335;23;20444;-67
2023/06/15 09:43:20;;;;;;;3.30;2.83;;;22.00;99.90;;;;;;6113499;23;20073;-67
2023/06/15 09:45:54;;;;;;;4.03;2.47;;;21.90;99.90;;;;;;6114134;23;20048;-67
2023/06/15 09:48:21;;;;;;;3.03;2.35;;;21.90;99.90;;;;;;6112219;23;20005;-67
2023/06/15 09:50:53;;;;;;;5.38;3.17;;;21.90;99.90;;;;;;6111372;23;20001;-67
2023/06/15 09:53:19;;;;;;;7.00;3.15;;;21.90;99.90;;;;;;6114572;23;20496;-67
2023/06/15 09:55:46;;;;;;;4.93;3.30;;;21.80;99.90;;;;;;6114460;23;20089;-67
2023/06/15 09:58:12;;;;;;;2.60;2.40;;;21.80;99.90;;;;;;6113473;23;20013;-67
2023/06/15 10:00:38;;;;;;;2.38;2.05;;;21.80;99.90;;;;;;6114064;23;20017;-67
2023/06/15 10:03:06;;;;;;;3.35;2.05;;;21.80;99.90;;;;;;6114121;23;20080;-67
2023/06/15 10:05:33;;;;;;;2.63;2.38;;;21.80;99.90;;;;;;6113765;23;20006;-69
2023/06/15 10:08:02;;;;;;;7.60;2.83;;;21.80;99.90;;;;;;6114718;23;20089;-68
2023/06/15 10:10:30;;;;;;;3.72;2.65;;;21.70;99.90;;;;;;6113359;23;20002;-68
2023/06/15 10:13:00;;;;;;;2.72;2.42;;;21.70;99.90;;;;;;6113701;23;20013;-67
2023/06/15 10:15:28;;;;;;;4.13;2.20;;;21.80;99.90;;;;;;6111592;23;20412;-67
2023/06/15 10:17:56;;;;;;;3.30;2.53;;;22.00;99.90;;;;;;6112662;23;20065;-67
2023/06/15 10:20:23;;;;;;;2.85;2.55;;;22.10;99.90;;;;;;6111534;23;20076;-68
2023/06/15 10:23:03;;;;;;;2.72;2.25;;;22.10;99.90;;;;;;6115295;23;20040;-67
2023/06/15 10:25:30;;;;;;;2.25;2.05;;;22.00;99.90;;;;;;6113925;23;20053;-67
2023/06/15 10:27:56;;;;;;;2.78;2.47;;;22.00;99.90;;;;;;6113710;23;20035;-69
2023/06/15 10:30:57;;;;;;;4.15;2.38;;;22.00;99.90;;;;;;6108090;23;20040;-69
2023/06/15 10:33:28;;;;;;;2.55;2.35;;;22.20;99.90;;;;;;6112067;23;20508;-68
2023/06/15 10:35:56;;;;;;;2.83;2.50;;;22.40;99.90;;;;;;6113131;23;20105;-69
2023/06/15 10:38:52;;;;;;;2.40;2.20;;;22.50;99.90;;;;;;6110860;23;20010;-69
2023/06/15 10:41:18;;;;;;;3.17;2.00;;;22.50;99.90;;;;;;6110810;23;20017;-69
2023/06/15 10:44:16;;;;;;;3.47;2.50;;;22.40;99.90;;;;;;6111582;23;20284;-69
2023/06/15 10:46:42;;;;;;;2.28;2.08;;;22.60;99.90;;;;;;6045535;23;20037;-69
2023/06/15 10:49:09;;;;;;;4.13;2.15;;;22.60;99.90;;;;;;6108757;23;20006;-69
2023/06/15 10:51:38;;;;;;;2.50;2.10;;;22.70;99.90;;;;;;6114165;23;20057;-69
2023/06/15 10:54:05;;;;;;;2.97;2.05;;;22.90;99.90;;;;;;6111449;23;20073;-69
2023/06/15 10:56:31;;;;;;;2.92;2.17;;;22.90;99.90;;;;;;6111017;23;20002;-69
2023/06/15 10:59:03;;;;;;;2.78;2.30;;;23.00;99.90;;;;;;6112135;23;20403;-69
2023/06/15 11:01:33;;;;;;;3.20;2.30;;;23.10;99.90;;;;;;6111993;23;20049;-69
2023/06/15 11:04:01;;;;;;;2.40;2.20;;;23.10;99.90;;;;;;6112384;23;20108;-69
2023/06/15 11:06:37;;;;;;;3.97;2.42;;;23.10;99.90;;;;;;6111112;23;20002;-70
2023/06/15 11:09:11;;;;;;;2.20;2.00;;;23.20;99.90;;;;;;6111306;23;20655;-69
2023/06/15 11:11:38;;;;;;;2.25;2.05;;;23.20;99.90;;;;;;6112100;23;20006;-69
2023/06/15 11:14:21;;;;;;;3.80;2.28;;;23.10;99.90;;;;;;6106626;23;20821;-65
2023/06/15 11:17:04;;;;;;;2.42;2.20;;;23.00;99.90;;;;;;6109338;23;20415;-65
2023/06/15 11:19:30;;;;;;;2.58;2.38;;;22.80;99.40;;;;;;6110003;23;20566;-65
2023/06/15 11:22:01;;;;;;;3.03;2.17;;;22.70;99.90;;;;;;6107315;23;20001;-74
2023/06/15 11:24:34;;;;;;;3.53;2.30;;;22.70;99.90;;;;;;6107544;23;20006;-74
2023/06/15 11:27:04;;;;;;;2.85;1.98;;;22.90;99.90;;;;;;6109925;23;20087;-74
2023/06/15 11:29:33;;;;;;;1.95;1.80;;;23.10;99.90;;;;;;6111488;23;20861;-75
2023/06/15 11:32:04;;;;;;;2.88;2.17;;;23.30;99.90;;;;;;6111562;23;20009;-74
2023/06/15 11:34:33;;;;;;;2.55;2.35;;;23.40;99.20;;;;;;6110222;23;20013;-74
2023/06/15 11:37:03;;;;;;;2.40;2.13;;;23.30;99.10;;;;;;6112076;23;20002;-74
2023/06/15 11:39:30;;;;;;;2.45;2.25;;;23.20;98.00;;;;;;6113507;23;20010;-64
2023/06/15 11:41:58;;;;;;;3.30;2.40;;;23.00;96.70;;;;;;6114304;23;20005;-64
2023/06/15 11:44:26;;;;;;;2.22;2.00;;;22.90;97.00;;;;;;6110499;23;20014;-65
2023/06/15 11:46:58;;;;;;;3.05;2.30;;;22.90;99.40;;;;;;6107879;23;20482;-64
2023/06/15 11:49:24;;;;;;;;;;;22.90;98.50;;;;;;6105384;23;20017;-65
2023/06/15 11:51:52;;;;;;;5.70;2.80;;;22.90;97.60;;;;;;6100432;23;19904;-64
2023/06/15 11:54:22;;;;;;;2.92;2.30;;;22.90;97.80;;;;;;6100478;23;20714;-65
2023/06/15 11:56:48;;;;;;;5.68;2.75;;;22.90;99.70;;;;;;6112856;23;20018;-65
2023/06/15 11:59:19;;;;;;;5.55;2.55;;;22.90;99.60;;;;;;6111091;23;20087;-62
2023/06/15 12:01:45;;;;;;;2.55;2.35;;;22.80;99.90;;;;;;6111600;23;20024;-64
2023/06/15 12:04:13;;;;;;;5.53;2.20;;;22.80;99.90;;;;;;6111210;23;20332;-64
2023/06/15 12:06:46;;;;;;;6.15;2.60;;;22.70;99.90;;;;;;6111552;23;20005;-64
2023/06/15 12:09:12;;;;;;;4.85;2.35;;;22.80;99.90;;;;;;6105342;23;20089;-70
2023/06/15 12:11:38;;;;;;;3.05;2.22;;;22.90;99.90;;;;;;6110170;23;20191;-69
2023/06/15 12:14:20;;;;;;;2.20;1.98;;;23.10;99.90;;;;;;6112210;23;20529;-69
2023/06/15 12:16:50;;;;;;;3.78;2.30;;;23.30;99.90;;;;;;6108445;23;20012;-70
2023/06/15 12:19:16;;;;;;;3.83;2.72;;;23.50;99.10;;;;;;6109508;23;20009;-69
2023/06/15 12:21:43;;;;;;;3.33;1.85;;;23.60;98.50;;;;;;6105784;23;20020;-70
2023/06/15 12:24:20;;;;;;;2.35;2.03;;;23.70;97.50;;;;;;6107871;23;20006;-70
2023/06/15 12:26:51;;;;;;;2.13;2.00;;;23.70;99.00;;;;;;6109805;23;20001;-70
2023/06/15 12:29:20;;;;;;;2.50;2.30;;;23.90;98.20;;;;;;6111461;23;20029;-70
2023/06/15 12:31:50;;;;;;;2.65;2.25;;;23.90;96.60;;;;;;6108360;23;20041;-70
2023/06/15 12:34:21;;;;;;;2.28;2.05;;;24.00;96.20;;;;;;6107688;23;20846;-69
2023/06/15 12:36:49;;;;;;;2.10;1.90;;;24.10;94.60;;;;;;6108698;23;20002;-70
2023/06/15 12:39:15;;;;;;;2.53;2.20;;;24.10;94.20;;;;;;6110922;23;20022;-70
2023/06/15 12:41:42;;;;;;;2.80;1.85;;;24.00;94.30;;;;;;6111272;23;20367;-70
2023/06/15 12:44:08;;;;;;;2.75;1.80;;;24.00;94.60;;;;;;6111220;23;20010;-70
2023/06/15 12:46:38;;;;;;;2.40;2.20;;;23.90;95.20;;;;;;6110755;23;20042;-70
2023/06/15 12:49:04;;;;;;;2.08;1.88;;;23.80;94.40;;;;;;6108018;23;20399;-70